sensor_id;sensor_type;location;lat;lon;timestamp;P1;durP1;ratioP1;P2;durP2;ratioP2
57667;SDS011;43499;52.366;12.912;2022-12-07T00:00:54;9.23;;;6.25;;
57667;SDS011;43499;52.366;12.912;2022-12-07T00:01:56;8.85;;;5.97;;
57667;SDS011;43499;52.366;12.912;2022-12-07T00:02:57;9.48;;;6.28;;
57667;SDS011;43499;52.366;12.912;2022-12-07T00:03:59;8.57;;;5.82;;
57667;SDS011;43499;52.366;12.912;2022-12-07T00:05:05;9.55;;;6.53;;
57667;SDS011;43499;52.366;12.912;2022-12-07T00:06:06;9.38;;;5.93;;
57667;SDS011;43499;52.366;12.912;2022-12-07T00:07:08;8.90;;;5.93;;
57667;SDS011;43499;52.366;12.912;2022-12-07T00:08:09;8.57;;;5.47;;
57667;SDS011;43499;52.366;12.912;2022-12-07T00:09:14;8.77;;;5.75;;
57667;SDS011;43499;52.366;12.912;2022-12-07T00:10:17;10.85;;;5.90;;
57667;SDS011;43499;52.366;12.912;2022-12-07T00:11:20;8.00;;;5.72;;
57667;SDS011;43499;52.366;12.912;2022-12-07T00:12:22;9.35;;;5.53;;
57667;SDS011;43499;52.366;12.912;2022-12-07T00:13:23;9.40;;;5.97;;
57667;SDS011;43499;52.366;12.912;2022-12-07T00:14:24;8.55;;;5.53;;
57667;SDS011;43499;52.366;12.912;2022-12-07T00:15:26;14.43;;;5.65;;
57667;SDS011;43499;52.366;12.912;2022-12-07T00:16:28;8.50;;;5.47;;
57667;SDS011;43499;52.366;12.912;2022-12-07T00:17:30;8.82;;;5.65;;
57667;SDS011;43499;52.366;12.912;2022-12-07T00:18:32;8.98;;;5.68;;
57667;SDS011;43499;52.366;12.912;2022-12-07T00:19:33;9.68;;;5.65;;
57667;SDS011;43499;52.366;12.912;2022-12-07T00:20:35;10.30;;;6.00;;
57667;SDS011;43499;52.366;12.912;2022-12-07T00:21:36;8.48;;;4.78;;
57667;SDS011;43499;52.366;12.912;2022-12-07T00:22:37;9.25;;;5.93;;
57667;SDS011;43499;52.366;12.912;2022-12-07T00:23:38;9.20;;;5.57;;
57667;SDS011;43499;52.366;12.912;2022-12-07T00:24:40;10.30;;;5.47;;
57667;SDS011;43499;52.366;12.912;2022-12-07T00:25:41;8.43;;;5.70;;
57667;SDS011;43499;52.366;12.912;2022-12-07T00:26:42;8.75;;;5.53;;
57667;SDS011;43499;52.366;12.912;2022-12-07T00:27:44;8.70;;;6.22;;
57667;SDS011;43499;52.366;12.912;2022-12-07T00:28:49;9.65;;;5.95;;
57667;SDS011;43499;52.366;12.912;2022-12-07T00:29:51;9.25;;;6.05;;
57667;SDS011;43499;52.366;12.912;2022-12-07T00:30:52;9.23;;;5.50;;
57667;SDS011;43499;52.366;12.912;2022-12-07T00:32:00;9.85;;;6.53;;
57667;SDS011;43499;52.366;12.912;2022-12-07T00:33:02;10.05;;;5.75;;
57667;SDS011;43499;52.366;12.912;2022-12-07T00:34:03;14.07;;;6.72;;
57667;SDS011;43499;52.366;12.912;2022-12-07T00:35:04;9.00;;;5.97;;
57667;SDS011;43499;52.366;12.912;2022-12-07T00:36:06;8.45;;;5.35;;
57667;SDS011;43499;52.366;12.912;2022-12-07T00:37:10;8.63;;;5.18;;
57667;SDS011;43499;52.366;12.912;2022-12-07T00:38:11;9.45;;;5.95;;
57667;SDS011;43499;52.366;12.912;2022-12-07T00:39:12;12.18;;;6.88;;
57667;SDS011;43499;52.366;12.912;2022-12-07T00:40:13;10.15;;;5.80;;
57667;SDS011;43499;52.366;12.912;2022-12-07T00:41:21;8.57;;;5.72;;
57667;SDS011;43499;52.366;12.912;2022-12-07T00:42:23;7.55;;;5.22;;
57667;SDS011;43499;52.366;12.912;2022-12-07T00:43:24;7.85;;;5.47;;
57667;SDS011;43499;52.366;12.912;2022-12-07T00:44:26;8.45;;;5.57;;
57667;SDS011;43499;52.366;12.912;2022-12-07T00:45:27;7.80;;;5.22;;
57667;SDS011;43499;52.366;12.912;2022-12-07T00:46:28;7.32;;;5.10;;
57667;SDS011;43499;52.366;12.912;2022-12-07T00:47:30;8.77;;;5.70;;
57667;SDS011;43499;52.366;12.912;2022-12-07T00:48:31;9.93;;;5.13;;
57667;SDS011;43499;52.366;12.912;2022-12-07T00:49:32;8.02;;;5.35;;
57667;SDS011;43499;52.366;12.912;2022-12-07T00:50:33;8.63;;;5.45;;
57667;SDS011;43499;52.366;12.912;2022-12-07T00:51:34;10.35;;;5.35;;
57667;SDS011;43499;52.366;12.912;2022-12-07T00:52:35;10.10;;;5.35;;
57667;SDS011;43499;52.366;12.912;2022-12-07T00:53:36;7.93;;;5.15;;
57667;SDS011;43499;52.366;12.912;2022-12-07T00:54:39;7.75;;;4.68;;
57667;SDS011;43499;52.366;12.912;2022-12-07T00:55:41;10.45;;;5.00;;
57667;SDS011;43499;52.366;12.912;2022-12-07T00:56:42;8.15;;;5.70;;
57667;SDS011;43499;52.366;12.912;2022-12-07T00:57:43;7.85;;;5.43;;
57667;SDS011;43499;52.366;12.912;2022-12-07T00:58:49;7.63;;;4.93;;
57667;SDS011;43499;52.366;12.912;2022-12-07T01:00:04;10.02;;;5.43;;
57667;SDS011;43499;52.366;12.912;2022-12-07T01:01:06;7.45;;;4.97;;
57667;SDS011;43499;52.366;12.912;2022-12-07T01:02:08;8.95;;;5.15;;
57667;SDS011;43499;52.366;12.912;2022-12-07T01:03:09;9.65;;;5.82;;
57667;SDS011;43499;52.366;12.912;2022-12-07T01:04:12;8.35;;;5.30;;
57667;SDS011;43499;52.366;12.912;2022-12-07T01:05:13;7.65;;;4.78;;
57667;SDS011;43499;52.366;12.912;2022-12-07T01:06:18;8.07;;;5.32;;
57667;SDS011;43499;52.366;12.912;2022-12-07T01:07:20;8.13;;;5.15;;
57667;SDS011;43499;52.366;12.912;2022-12-07T01:08:22;8.02;;;5.13;;
57667;SDS011;43499;52.366;12.912;2022-12-07T01:09:24;6.97;;;4.88;;
57667;SDS011;43499;52.366;12.912;2022-12-07T01:10:26;8.35;;;4.72;;
57667;SDS011;43499;52.366;12.912;2022-12-07T01:11:28;8.05;;;5.25;;
57667;SDS011;43499;52.366;12.912;2022-12-07T01:12:30;7.95;;;5.03;;
57667;SDS011;43499;52.366;12.912;2022-12-07T01:13:32;9.25;;;4.82;;
57667;SDS011;43499;52.366;12.912;2022-12-07T01:14:34;7.70;;;5.13;;
57667;SDS011;43499;52.366;12.912;2022-12-07T01:15:38;7.28;;;4.75;;
57667;SDS011;43499;52.366;12.912;2022-12-07T01:16:40;8.35;;;5.10;;
57667;SDS011;43499;52.366;12.912;2022-12-07T01:17:41;7.75;;;4.53;;
57667;SDS011;43499;52.366;12.912;2022-12-07T01:18:45;6.85;;;4.70;;
57667;SDS011;43499;52.366;12.912;2022-12-07T01:19:47;7.80;;;4.57;;
57667;SDS011;43499;52.366;12.912;2022-12-07T01:20:56;8.68;;;5.15;;
57667;SDS011;43499;52.366;12.912;2022-12-07T01:22:01;6.75;;;4.40;;
57667;SDS011;43499;52.366;12.912;2022-12-07T01:23:03;6.80;;;4.40;;
57667;SDS011;43499;52.366;12.912;2022-12-07T01:24:05;6.47;;;4.18;;
57667;SDS011;43499;52.366;12.912;2022-12-07T01:25:08;7.70;;;5.03;;
57667;SDS011;43499;52.366;12.912;2022-12-07T01:26:12;9.77;;;4.90;;
57667;SDS011;43499;52.366;12.912;2022-12-07T01:27:15;9.40;;;4.95;;
57667;SDS011;43499;52.366;12.912;2022-12-07T01:28:16;7.15;;;4.57;;
57667;SDS011;43499;52.366;12.912;2022-12-07T01:29:17;8.10;;;4.88;;
57667;SDS011;43499;52.366;12.912;2022-12-07T01:30:18;7.53;;;5.03;;
57667;SDS011;43499;52.366;12.912;2022-12-07T01:31:20;7.80;;;4.65;;
57667;SDS011;43499;52.366;12.912;2022-12-07T01:32:22;7.38;;;4.93;;
57667;SDS011;43499;52.366;12.912;2022-12-07T01:33:23;7.47;;;4.65;;
57667;SDS011;43499;52.366;12.912;2022-12-07T01:34:24;17.75;;;4.13;;
57667;SDS011;43499;52.366;12.912;2022-12-07T01:35:26;6.93;;;4.88;;
57667;SDS011;43499;52.366;12.912;2022-12-07T01:36:28;7.82;;;4.97;;
57667;SDS011;43499;52.366;12.912;2022-12-07T01:37:34;7.03;;;4.70;;
57667;SDS011;43499;52.366;12.912;2022-12-07T01:38:36;7.63;;;4.45;;
57667;SDS011;43499;52.366;12.912;2022-12-07T01:39:37;9.07;;;4.57;;
57667;SDS011;43499;52.366;12.912;2022-12-07T01:40:39;6.95;;;4.55;;
57667;SDS011;43499;52.366;12.912;2022-12-07T01:41:40;8.70;;;4.88;;
57667;SDS011;43499;52.366;12.912;2022-12-07T01:42:43;8.55;;;4.68;;
57667;SDS011;43499;52.366;12.912;2022-12-07T01:46:40;6.45;;;4.43;;
57667;SDS011;43499;52.366;12.912;2022-12-07T01:47:42;6.45;;;4.18;;
57667;SDS011;43499;52.366;12.912;2022-12-07T01:48:46;6.13;;;4.30;;
57667;SDS011;43499;52.366;12.912;2022-12-07T01:49:47;7.47;;;4.43;;
57667;SDS011;43499;52.366;12.912;2022-12-07T01:50:52;7.05;;;4.40;;
57667;SDS011;43499;52.366;12.912;2022-12-07T01:53:19;7.78;;;4.78;;
57667;SDS011;43499;52.366;12.912;2022-12-07T01:54:20;8.32;;;4.38;;
57667;SDS011;43499;52.366;12.912;2022-12-07T01:55:22;8.55;;;4.78;;
57667;SDS011;43499;52.366;12.912;2022-12-07T01:56:25;10.00;;;4.88;;
57667;SDS011;43499;52.366;12.912;2022-12-07T01:57:28;9.75;;;4.32;;
57667;SDS011;43499;52.366;12.912;2022-12-07T01:58:31;8.10;;;4.70;;
57667;SDS011;43499;52.366;12.912;2022-12-07T01:59:32;6.82;;;4.45;;
57667;SDS011;43499;52.366;12.912;2022-12-07T02:00:34;7.93;;;4.85;;
57667;SDS011;43499;52.366;12.912;2022-12-07T02:01:35;13.55;;;5.22;;
57667;SDS011;43499;52.366;12.912;2022-12-07T02:02:41;7.15;;;4.28;;
57667;SDS011;43499;52.366;12.912;2022-12-07T02:03:46;9.10;;;4.97;;
57667;SDS011;43499;52.366;12.912;2022-12-07T02:04:47;8.88;;;5.25;;
57667;SDS011;43499;52.366;12.912;2022-12-07T02:05:49;12.25;;;5.32;;
57667;SDS011;43499;52.366;12.912;2022-12-07T02:06:52;9.85;;;6.05;;
57667;SDS011;43499;52.366;12.912;2022-12-07T02:07:55;8.55;;;5.13;;
57667;SDS011;43499;52.366;12.912;2022-12-07T02:08:58;10.40;;;5.25;;
57667;SDS011;43499;52.366;12.912;2022-12-07T02:10:12;11.85;;;6.20;;
57667;SDS011;43499;52.366;12.912;2022-12-07T02:11:17;9.52;;;5.68;;
57667;SDS011;43499;52.366;12.912;2022-12-07T02:12:19;11.02;;;6.05;;
57667;SDS011;43499;52.366;12.912;2022-12-07T02:13:24;7.80;;;5.03;;
57667;SDS011;43499;52.366;12.912;2022-12-07T02:14:29;11.27;;;6.28;;
57667;SDS011;43499;52.366;12.912;2022-12-07T02:15:41;8.05;;;5.10;;
57667;SDS011;43499;52.366;12.912;2022-12-07T02:16:47;9.05;;;5.28;;
57667;SDS011;43499;52.366;12.912;2022-12-07T02:18:07;10.02;;;5.55;;
57667;SDS011;43499;52.366;12.912;2022-12-07T02:20:57;14.73;;;5.78;;
57667;SDS011;43499;52.366;12.912;2022-12-07T02:23:53;10.13;;;5.20;;
57667;SDS011;43499;52.366;12.912;2022-12-07T02:27:45;10.85;;;5.85;;
57667;SDS011;43499;52.366;12.912;2022-12-07T02:29:03;12.60;;;6.72;;
57667;SDS011;43499;52.366;12.912;2022-12-07T02:30:17;11.18;;;6.30;;
57667;SDS011;43499;52.366;12.912;2022-12-07T02:31:20;11.38;;;5.57;;
57667;SDS011;43499;52.366;12.912;2022-12-07T02:32:44;12.35;;;6.40;;
57667;SDS011;43499;52.366;12.912;2022-12-07T02:34:14;11.88;;;6.68;;
57667;SDS011;43499;52.366;12.912;2022-12-07T02:35:24;11.43;;;6.28;;
57667;SDS011;43499;52.366;12.912;2022-12-07T02:36:32;11.55;;;6.10;;
57667;SDS011;43499;52.366;12.912;2022-12-07T02:37:42;12.17;;;6.77;;
57667;SDS011;43499;52.366;12.912;2022-12-07T02:39:10;9.75;;;6.30;;
57667;SDS011;43499;52.366;12.912;2022-12-07T02:40:24;11.27;;;6.15;;
57667;SDS011;43499;52.366;12.912;2022-12-07T02:41:36;12.40;;;6.73;;
57667;SDS011;43499;52.366;12.912;2022-12-07T02:42:45;11.07;;;6.03;;
57667;SDS011;43499;52.366;12.912;2022-12-07T02:43:55;13.52;;;7.60;;
57667;SDS011;43499;52.366;12.912;2022-12-07T02:45:00;13.45;;;6.63;;
57667;SDS011;43499;52.366;12.912;2022-12-07T02:46:06;11.77;;;6.80;;
57667;SDS011;43499;52.366;12.912;2022-12-07T02:47:12;10.43;;;6.50;;
57667;SDS011;43499;52.366;12.912;2022-12-07T02:49:23;12.38;;;6.45;;
57667;SDS011;43499;52.366;12.912;2022-12-07T02:50:26;14.60;;;6.15;;
57667;SDS011;43499;52.366;12.912;2022-12-07T02:51:32;16.92;;;8.45;;
57667;SDS011;43499;52.366;12.912;2022-12-07T02:52:33;12.35;;;7.03;;
57667;SDS011;43499;52.366;12.912;2022-12-07T02:54:40;16.10;;;6.65;;
57667;SDS011;43499;52.366;12.912;2022-12-07T02:55:41;14.63;;;6.35;;
57667;SDS011;43499;52.366;12.912;2022-12-07T02:56:49;14.75;;;8.15;;
57667;SDS011;43499;52.366;12.912;2022-12-07T02:58:10;13.43;;;7.13;;
57667;SDS011;43499;52.366;12.912;2022-12-07T03:00:50;15.27;;;7.10;;
57667;SDS011;43499;52.366;12.912;2022-12-07T03:03:22;14.50;;;7.45;;
57667;SDS011;43499;52.366;12.912;2022-12-07T03:04:34;18.13;;;8.45;;
57667;SDS011;43499;52.366;12.912;2022-12-07T03:07:06;16.85;;;8.15;;
57667;SDS011;43499;52.366;12.912;2022-12-07T03:08:34;15.38;;;7.82;;
57667;SDS011;43499;52.366;12.912;2022-12-07T03:09:53;15.45;;;7.97;;
57667;SDS011;43499;52.366;12.912;2022-12-07T03:12:10;16.33;;;8.48;;
57667;SDS011;43499;52.366;12.912;2022-12-07T03:13:23;17.08;;;9.13;;
57667;SDS011;43499;52.366;12.912;2022-12-07T03:14:36;14.82;;;7.38;;
57667;SDS011;43499;52.366;12.912;2022-12-07T03:15:48;18.45;;;8.82;;
57667;SDS011;43499;52.366;12.912;2022-12-07T03:17:04;15.70;;;8.35;;
57667;SDS011;43499;52.366;12.912;2022-12-07T03:18:12;18.02;;;9.00;;
57667;SDS011;43499;52.366;12.912;2022-12-07T03:19:17;19.00;;;9.55;;
57667;SDS011;43499;52.366;12.912;2022-12-07T03:20:21;25.00;;;8.27;;
57667;SDS011;43499;52.366;12.912;2022-12-07T03:21:26;16.42;;;8.88;;
57667;SDS011;43499;52.366;12.912;2022-12-07T03:22:32;19.50;;;8.98;;
57667;SDS011;43499;52.366;12.912;2022-12-07T03:23:37;18.10;;;9.27;;
57667;SDS011;43499;52.366;12.912;2022-12-07T03:24:42;22.58;;;10.40;;
57667;SDS011;43499;52.366;12.912;2022-12-07T03:25:48;18.33;;;9.82;;
57667;SDS011;43499;52.366;12.912;2022-12-07T03:26:55;19.88;;;9.80;;
57667;SDS011;43499;52.366;12.912;2022-12-07T03:28:20;23.38;;;9.63;;
57667;SDS011;43499;52.366;12.912;2022-12-07T03:29:28;20.55;;;10.38;;
57667;SDS011;43499;52.366;12.912;2022-12-07T03:30:45;17.20;;;9.05;;
57667;SDS011;43499;52.366;12.912;2022-12-07T03:31:51;15.63;;;8.43;;
57667;SDS011;43499;52.366;12.912;2022-12-07T03:33:10;20.13;;;10.25;;
57667;SDS011;43499;52.366;12.912;2022-12-07T03:34:25;21.20;;;9.27;;
57667;SDS011;43499;52.366;12.912;2022-12-07T03:35:56;19.63;;;10.65;;
57667;SDS011;43499;52.366;12.912;2022-12-07T03:37:03;19.05;;;10.43;;
57667;SDS011;43499;52.366;12.912;2022-12-07T03:38:19;18.30;;;9.60;;
57667;SDS011;43499;52.366;12.912;2022-12-07T03:40:30;21.58;;;11.05;;
57667;SDS011;43499;52.366;12.912;2022-12-07T03:41:35;21.45;;;10.25;;
57667;SDS011;43499;52.366;12.912;2022-12-07T03:42:39;20.25;;;11.48;;
57667;SDS011;43499;52.366;12.912;2022-12-07T03:43:41;20.98;;;11.07;;
57667;SDS011;43499;52.366;12.912;2022-12-07T03:44:43;19.98;;;10.65;;
57667;SDS011;43499;52.366;12.912;2022-12-07T03:45:46;20.27;;;11.07;;
57667;SDS011;43499;52.366;12.912;2022-12-07T03:47:01;24.50;;;11.13;;
57667;SDS011;43499;52.366;12.912;2022-12-07T03:48:20;21.73;;;11.00;;
57667;SDS011;43499;52.366;12.912;2022-12-07T03:51:11;26.20;;;12.20;;
57667;SDS011;43499;52.366;12.912;2022-12-07T03:52:22;26.17;;;11.77;;
57667;SDS011;43499;52.366;12.912;2022-12-07T03:53:36;23.17;;;11.20;;
57667;SDS011;43499;52.366;12.912;2022-12-07T03:56:04;28.38;;;12.50;;
57667;SDS011;43499;52.366;12.912;2022-12-07T03:57:06;27.77;;;12.43;;
57667;SDS011;43499;52.366;12.912;2022-12-07T03:58:12;24.13;;;13.13;;
57667;SDS011;43499;52.366;12.912;2022-12-07T03:59:17;23.33;;;11.50;;
57667;SDS011;43499;52.366;12.912;2022-12-07T04:00:20;23.08;;;12.65;;
57667;SDS011;43499;52.366;12.912;2022-12-07T04:01:22;28.48;;;14.32;;
57667;SDS011;43499;52.366;12.912;2022-12-07T04:02:24;28.52;;;12.98;;
57667;SDS011;43499;52.366;12.912;2022-12-07T04:03:28;22.17;;;11.00;;
57667;SDS011;43499;52.366;12.912;2022-12-07T04:04:29;26.75;;;12.88;;
57667;SDS011;43499;52.366;12.912;2022-12-07T04:05:39;24.95;;;14.77;;
57667;SDS011;43499;52.366;12.912;2022-12-07T04:06:41;24.60;;;12.57;;
57667;SDS011;43499;52.366;12.912;2022-12-07T04:07:42;20.67;;;11.00;;
57667;SDS011;43499;52.366;12.912;2022-12-07T04:08:43;27.55;;;13.68;;
57667;SDS011;43499;52.366;12.912;2022-12-07T04:09:44;24.77;;;12.18;;
57667;SDS011;43499;52.366;12.912;2022-12-07T04:10:45;32.13;;;13.80;;
57667;SDS011;43499;52.366;12.912;2022-12-07T04:11:46;28.38;;;13.50;;
57667;SDS011;43499;52.366;12.912;2022-12-07T04:12:47;24.50;;;12.13;;
57667;SDS011;43499;52.366;12.912;2022-12-07T04:13:48;25.42;;;13.23;;
57667;SDS011;43499;52.366;12.912;2022-12-07T04:15:08;21.08;;;11.27;;
57667;SDS011;43499;52.366;12.912;2022-12-07T04:16:13;24.33;;;11.90;;
57667;SDS011;43499;52.366;12.912;2022-12-07T04:17:14;26.45;;;13.55;;
57667;SDS011;43499;52.366;12.912;2022-12-07T04:18:19;24.83;;;13.20;;
57667;SDS011;43499;52.366;12.912;2022-12-07T04:19:21;28.73;;;13.50;;
57667;SDS011;43499;52.366;12.912;2022-12-07T04:20:24;27.05;;;12.65;;
57667;SDS011;43499;52.366;12.912;2022-12-07T04:21:25;29.30;;;14.63;;
57667;SDS011;43499;52.366;12.912;2022-12-07T04:22:26;28.98;;;13.73;;
57667;SDS011;43499;52.366;12.912;2022-12-07T04:23:27;28.38;;;13.30;;
57667;SDS011;43499;52.366;12.912;2022-12-07T04:24:29;32.35;;;13.15;;
57667;SDS011;43499;52.366;12.912;2022-12-07T04:25:30;27.27;;;13.57;;
57667;SDS011;43499;52.366;12.912;2022-12-07T04:26:31;27.92;;;13.45;;
57667;SDS011;43499;52.366;12.912;2022-12-07T04:27:32;28.20;;;14.70;;
57667;SDS011;43499;52.366;12.912;2022-12-07T04:28:33;30.15;;;14.20;;
57667;SDS011;43499;52.366;12.912;2022-12-07T04:29:34;24.88;;;12.65;;
57667;SDS011;43499;52.366;12.912;2022-12-07T04:30:35;26.75;;;13.57;;
57667;SDS011;43499;52.366;12.912;2022-12-07T04:31:36;26.10;;;13.55;;
57667;SDS011;43499;52.366;12.912;2022-12-07T04:32:37;25.40;;;13.15;;
57667;SDS011;43499;52.366;12.912;2022-12-07T04:33:38;22.38;;;12.45;;
57667;SDS011;43499;52.366;12.912;2022-12-07T04:34:39;28.95;;;14.50;;
57667;SDS011;43499;52.366;12.912;2022-12-07T04:35:43;25.58;;;12.45;;
57667;SDS011;43499;52.366;12.912;2022-12-07T04:36:45;25.63;;;13.52;;
57667;SDS011;43499;52.366;12.912;2022-12-07T04:37:46;29.95;;;14.25;;
57667;SDS011;43499;52.366;12.912;2022-12-07T04:38:52;30.42;;;14.40;;
57667;SDS011;43499;52.366;12.912;2022-12-07T04:39:54;28.02;;;14.45;;
57667;SDS011;43499;52.366;12.912;2022-12-07T04:40:55;21.95;;;11.52;;
57667;SDS011;43499;52.366;12.912;2022-12-07T04:41:57;25.02;;;13.02;;
57667;SDS011;43499;52.366;12.912;2022-12-07T04:42:58;24.17;;;13.05;;
57667;SDS011;43499;52.366;12.912;2022-12-07T04:44:01;29.85;;;14.68;;
57667;SDS011;43499;52.366;12.912;2022-12-07T04:45:03;30.52;;;13.93;;
57667;SDS011;43499;52.366;12.912;2022-12-07T04:46:05;31.48;;;14.25;;
57667;SDS011;43499;52.366;12.912;2022-12-07T04:47:06;28.33;;;14.35;;
57667;SDS011;43499;52.366;12.912;2022-12-07T04:48:07;29.48;;;15.07;;
57667;SDS011;43499;52.366;12.912;2022-12-07T04:49:09;29.63;;;13.07;;
57667;SDS011;43499;52.366;12.912;2022-12-07T04:50:10;30.08;;;13.73;;
57667;SDS011;43499;52.366;12.912;2022-12-07T04:51:19;28.30;;;13.77;;
57667;SDS011;43499;52.366;12.912;2022-12-07T04:52:25;26.83;;;14.23;;
57667;SDS011;43499;52.366;12.912;2022-12-07T04:53:26;27.42;;;14.07;;
57667;SDS011;43499;52.366;12.912;2022-12-07T04:54:29;24.92;;;12.57;;
57667;SDS011;43499;52.366;12.912;2022-12-07T04:55:30;27.95;;;12.93;;
57667;SDS011;43499;52.366;12.912;2022-12-07T04:56:32;26.88;;;14.02;;
57667;SDS011;43499;52.366;12.912;2022-12-07T04:57:33;31.25;;;15.10;;
57667;SDS011;43499;52.366;12.912;2022-12-07T04:58:34;29.73;;;13.90;;
57667;SDS011;43499;52.366;12.912;2022-12-07T04:59:35;30.33;;;14.98;;
57667;SDS011;43499;52.366;12.912;2022-12-07T05:00:36;31.45;;;14.82;;
57667;SDS011;43499;52.366;12.912;2022-12-07T05:01:37;32.85;;;15.27;;
57667;SDS011;43499;52.366;12.912;2022-12-07T05:02:38;30.63;;;14.27;;
57667;SDS011;43499;52.366;12.912;2022-12-07T05:03:39;30.20;;;14.57;;
57667;SDS011;43499;52.366;12.912;2022-12-07T05:04:41;38.63;;;15.50;;
57667;SDS011;43499;52.366;12.912;2022-12-07T05:05:42;32.92;;;14.07;;
57667;SDS011;43499;52.366;12.912;2022-12-07T05:06:43;35.50;;;15.30;;
57667;SDS011;43499;52.366;12.912;2022-12-07T05:07:44;28.55;;;14.65;;
57667;SDS011;43499;52.366;12.912;2022-12-07T05:08:45;31.63;;;14.82;;
57667;SDS011;43499;52.366;12.912;2022-12-07T05:09:46;30.70;;;15.38;;
57667;SDS011;43499;52.366;12.912;2022-12-07T05:10:48;33.05;;;14.75;;
57667;SDS011;43499;52.366;12.912;2022-12-07T05:11:50;37.67;;;15.40;;
57667;SDS011;43499;52.366;12.912;2022-12-07T05:12:51;34.47;;;15.45;;
57667;SDS011;43499;52.366;12.912;2022-12-07T05:13:52;35.97;;;15.55;;
57667;SDS011;43499;52.366;12.912;2022-12-07T05:14:53;37.35;;;15.73;;
57667;SDS011;43499;52.366;12.912;2022-12-07T05:15:54;36.40;;;16.67;;
57667;SDS011;43499;52.366;12.912;2022-12-07T05:16:55;29.80;;;15.18;;
57667;SDS011;43499;52.366;12.912;2022-12-07T05:17:56;29.55;;;14.95;;
57667;SDS011;43499;52.366;12.912;2022-12-07T05:18:57;36.80;;;15.60;;
57667;SDS011;43499;52.366;12.912;2022-12-07T05:19:58;37.00;;;16.88;;
57667;SDS011;43499;52.366;12.912;2022-12-07T05:20:59;38.58;;;16.80;;
57667;SDS011;43499;52.366;12.912;2022-12-07T05:22:00;35.85;;;16.58;;
57667;SDS011;43499;52.366;12.912;2022-12-07T05:23:02;39.45;;;17.45;;
57667;SDS011;43499;52.366;12.912;2022-12-07T05:24:03;33.35;;;15.02;;
57667;SDS011;43499;52.366;12.912;2022-12-07T05:25:04;39.83;;;16.50;;
57667;SDS011;43499;52.366;12.912;2022-12-07T05:26:05;37.53;;;17.30;;
57667;SDS011;43499;52.366;12.912;2022-12-07T05:27:06;32.08;;;14.85;;
57667;SDS011;43499;52.366;12.912;2022-12-07T05:28:07;34.72;;;16.75;;
57667;SDS011;43499;52.366;12.912;2022-12-07T05:29:10;36.53;;;16.42;;
57667;SDS011;43499;52.366;12.912;2022-12-07T05:30:13;37.75;;;16.80;;
57667;SDS011;43499;52.366;12.912;2022-12-07T05:31:14;32.55;;;16.17;;
57667;SDS011;43499;52.366;12.912;2022-12-07T05:32:15;32.70;;;16.02;;
57667;SDS011;43499;52.366;12.912;2022-12-07T05:33:16;36.00;;;16.15;;
57667;SDS011;43499;52.366;12.912;2022-12-07T05:34:17;33.53;;;16.15;;
57667;SDS011;43499;52.366;12.912;2022-12-07T05:35:18;35.83;;;18.23;;
57667;SDS011;43499;52.366;12.912;2022-12-07T05:36:19;33.35;;;16.90;;
57667;SDS011;43499;52.366;12.912;2022-12-07T05:37:21;45.60;;;17.95;;
57667;SDS011;43499;52.366;12.912;2022-12-07T05:38:22;34.78;;;16.40;;
57667;SDS011;43499;52.366;12.912;2022-12-07T05:39:23;32.97;;;16.23;;
57667;SDS011;43499;52.366;12.912;2022-12-07T05:40:24;30.25;;;16.38;;
57667;SDS011;43499;52.366;12.912;2022-12-07T05:41:25;36.40;;;17.15;;
57667;SDS011;43499;52.366;12.912;2022-12-07T05:42:52;33.60;;;16.52;;
57667;SDS011;43499;52.366;12.912;2022-12-07T05:43:53;40.85;;;16.35;;
57667;SDS011;43499;52.366;12.912;2022-12-07T05:44:55;30.80;;;15.90;;
57667;SDS011;43499;52.366;12.912;2022-12-07T05:45:56;35.05;;;16.98;;
57667;SDS011;43499;52.366;12.912;2022-12-07T05:46:57;34.78;;;16.80;;
57667;SDS011;43499;52.366;12.912;2022-12-07T05:47:58;34.47;;;17.15;;
57667;SDS011;43499;52.366;12.912;2022-12-07T05:49:00;34.28;;;17.30;;
57667;SDS011;43499;52.366;12.912;2022-12-07T05:50:02;38.63;;;17.55;;
57667;SDS011;43499;52.366;12.912;2022-12-07T05:51:05;30.02;;;14.93;;
57667;SDS011;43499;52.366;12.912;2022-12-07T05:52:06;32.38;;;15.82;;
57667;SDS011;43499;52.366;12.912;2022-12-07T05:53:07;38.90;;;16.52;;
57667;SDS011;43499;52.366;12.912;2022-12-07T05:54:08;38.78;;;16.85;;
57667;SDS011;43499;52.366;12.912;2022-12-07T05:55:09;34.83;;;17.45;;
57667;SDS011;43499;52.366;12.912;2022-12-07T05:56:10;36.83;;;17.77;;
57667;SDS011;43499;52.366;12.912;2022-12-07T05:57:11;32.55;;;16.50;;
57667;SDS011;43499;52.366;12.912;2022-12-07T05:58:12;36.97;;;17.95;;
57667;SDS011;43499;52.366;12.912;2022-12-07T05:59:32;35.60;;;15.77;;
57667;SDS011;43499;52.366;12.912;2022-12-07T06:00:34;43.22;;;19.08;;
57667;SDS011;43499;52.366;12.912;2022-12-07T06:01:35;35.70;;;16.65;;
57667;SDS011;43499;52.366;12.912;2022-12-07T06:02:36;31.75;;;17.35;;
57667;SDS011;43499;52.366;12.912;2022-12-07T06:03:37;32.33;;;16.42;;
57667;SDS011;43499;52.366;12.912;2022-12-07T06:04:39;34.83;;;17.08;;
57667;SDS011;43499;52.366;12.912;2022-12-07T06:05:42;40.40;;;17.05;;
57667;SDS011;43499;52.366;12.912;2022-12-07T06:06:43;31.73;;;16.83;;
57667;SDS011;43499;52.366;12.912;2022-12-07T06:07:44;32.08;;;15.60;;
57667;SDS011;43499;52.366;12.912;2022-12-07T06:08:50;33.40;;;17.02;;
57667;SDS011;43499;52.366;12.912;2022-12-07T06:09:51;32.08;;;15.48;;
57667;SDS011;43499;52.366;12.912;2022-12-07T06:10:53;34.13;;;16.38;;
57667;SDS011;43499;52.366;12.912;2022-12-07T06:12:16;32.88;;;15.88;;
57667;SDS011;43499;52.366;12.912;2022-12-07T06:13:35;32.65;;;15.75;;
57667;SDS011;43499;52.366;12.912;2022-12-07T06:14:36;31.67;;;16.63;;
57667;SDS011;43499;52.366;12.912;2022-12-07T06:15:38;30.40;;;15.38;;
57667;SDS011;43499;52.366;12.912;2022-12-07T06:16:39;37.20;;;16.65;;
57667;SDS011;43499;52.366;12.912;2022-12-07T06:17:40;39.45;;;17.40;;
57667;SDS011;43499;52.366;12.912;2022-12-07T06:18:41;31.15;;;16.80;;
57667;SDS011;43499;52.366;12.912;2022-12-07T06:19:42;37.28;;;17.20;;
57667;SDS011;43499;52.366;12.912;2022-12-07T06:20:43;39.75;;;17.05;;
57667;SDS011;43499;52.366;12.912;2022-12-07T06:21:44;32.80;;;16.60;;
57667;SDS011;43499;52.366;12.912;2022-12-07T06:22:45;33.83;;;17.38;;
57667;SDS011;43499;52.366;12.912;2022-12-07T06:23:47;35.70;;;15.93;;
57667;SDS011;43499;52.366;12.912;2022-12-07T06:24:48;29.88;;;15.40;;
57667;SDS011;43499;52.366;12.912;2022-12-07T06:25:49;29.23;;;15.95;;
57667;SDS011;43499;52.366;12.912;2022-12-07T06:26:50;31.13;;;15.90;;
57667;SDS011;43499;52.366;12.912;2022-12-07T06:27:51;33.03;;;16.30;;
57667;SDS011;43499;52.366;12.912;2022-12-07T06:28:52;34.25;;;15.82;;
57667;SDS011;43499;52.366;12.912;2022-12-07T06:29:53;33.38;;;16.35;;
57667;SDS011;43499;52.366;12.912;2022-12-07T06:31:01;30.95;;;16.15;;
57667;SDS011;43499;52.366;12.912;2022-12-07T06:32:03;37.88;;;16.60;;
57667;SDS011;43499;52.366;12.912;2022-12-07T06:33:05;37.03;;;17.00;;
57667;SDS011;43499;52.366;12.912;2022-12-07T06:34:08;33.53;;;15.98;;
57667;SDS011;43499;52.366;12.912;2022-12-07T06:35:11;36.30;;;17.17;;
57667;SDS011;43499;52.366;12.912;2022-12-07T06:36:12;31.02;;;15.20;;